Time;durP1;ratioP1;P1;durP2;ratioP2;P2;SDS_P1;SDS_P2;PMS_P1;PMS_P2;Temp;Humidity;BMP_temperature;BMP_pressure;BME280_temperature;BME280_humidity;BME280_pressure;Samples;Min_cycle;Max_cycle;Signal;HPM_P1;HPM_P2
2022/12/06 00:01:36;;;;;;;15.13;6.40;;;5.30;99.90;;;;;;5110134;28;20040;-72
2022/12/06 00:04:05;;;;;;;11.73;6.90;;;5.30;99.90;;;;;;5110781;28;20043;-71
2022/12/06 00:06:32;;;;;;;19.33;6.83;;;5.30;99.90;;;;;;5091415;28;20067;-71
2022/12/06 00:08:59;;;;;;;12.53;6.27;;;5.30;99.90;;;;;;5113576;28;20047;-71
2022/12/06 00:11:28;;;;;;;11.67;5.83;;;5.30;99.90;;;;;;5089381;28;20104;-71
2022/12/06 00:13:56;;;;;;;12.33;5.70;;;5.40;99.90;;;;;;5109493;28;20048;-71
2022/12/06 00:16:23;;;;;;;10.97;5.67;;;5.30;99.90;;;;;;5111398;28;20032;-71
2022/12/06 00:18:49;;;;;;;16.20;6.33;;;5.30;99.90;;;;;;5109390;28;20424;-71
2022/12/06 00:21:24;;;;;;;12.93;5.50;;;5.30;99.90;;;;;;5106859;28;20044;-71
2022/12/06 00:23:59;;;;;;;11.73;5.20;;;5.40;99.90;;;;;;5107096;28;20124;-72
2022/12/06 00:26:25;;;;;;;12.20;5.37;;;5.30;99.90;;;;;;5110344;28;20043;-72
2022/12/06 00:28:58;;;;;;;13.80;5.30;;;5.30;99.90;;;;;;5110266;28;20055;-71
2022/12/06 00:31:25;;;;;;;;;;;5.30;99.90;;;;;;5109175;28;20040;-71
2022/12/06 00:33:51;;;;;;;12.33;5.40;;;5.30;99.90;;;;;;5111169;27;19983;-71
2022/12/06 00:36:19;;;;;;;8.13;5.03;;;5.30;99.90;;;;;;5112279;28;20042;-71
2022/12/06 00:38:45;;;;;;;9.13;4.80;;;5.30;99.90;;;;;;5082062;27;20077;-72
2022/12/06 00:41:13;;;;;;;11.03;4.93;;;5.30;99.90;;;;;;5112637;27;20110;-71
2022/12/06 00:43:40;;;;;;;11.27;4.83;;;5.30;99.90;;;;;;5114299;27;20043;-72
2022/12/06 00:46:08;;;;;;;11.53;4.57;;;5.40;99.90;;;;;;5109477;27;20032;-71
2022/12/06 00:48:34;;;;;;;8.63;4.37;;;5.40;99.90;;;;;;5097562;27;20051;-71
2022/12/06 00:50:59;;;;;;;11.50;5.10;;;5.40;99.90;;;;;;5111010;27;20032;-71
2022/12/06 00:53:26;;;;;;;15.90;5.40;;;5.30;99.90;;;;;;5099493;28;20070;-71
2022/12/06 00:55:52;;;;;;;10.40;4.67;;;5.30;99.90;;;;;;5082080;28;20477;-72
2022/12/06 00:58:18;;;;;;;14.43;5.23;;;5.30;99.90;;;;;;5094292;28;20070;-71
2022/12/06 01:00:44;;;;;;;9.17;4.50;;;5.30;99.90;;;;;;5114549;27;20043;-71
2022/12/06 01:03:10;;;;;;;10.50;4.77;;;5.30;99.90;;;;;;5112949;27;20036;-71
2022/12/06 01:05:40;;;;;;;12.67;4.70;;;5.30;99.90;;;;;;5112731;27;20044;-71
2022/12/06 01:08:07;;;;;;;8.97;4.57;;;5.30;99.90;;;;;;5112895;27;20131;-71
2022/12/06 01:10:33;;;;;;;10.60;4.97;;;5.30;99.90;;;;;;5095057;28;20506;-71
2022/12/06 01:12:58;;;;;;;9.60;4.83;;;5.30;99.90;;;;;;5117024;27;20504;-71
2022/12/06 01:15:24;;;;;;;10.23;4.80;;;5.30;99.90;;;;;;5079545;28;20107;-71
2022/12/06 01:17:49;;;;;;;10.77;4.83;;;5.30;99.90;;;;;;5117057;27;20336;-71
2022/12/06 01:20:15;;;;;;;13.03;5.17;;;5.30;99.90;;;;;;5079505;27;20055;-71
2022/12/06 01:22:41;;;;;;;10.23;4.30;;;5.30;99.90;;;;;;5097013;28;20046;-72
2022/12/06 01:25:07;;;;;;;13.87;4.73;;;5.30;99.90;;;;;;5113271;27;20039;-71
2022/12/06 01:27:32;;;;;;;12.67;5.27;;;5.30;99.90;;;;;;5114126;27;20059;-71
2022/12/06 01:29:58;;;;;;;11.90;5.07;;;5.30;99.90;;;;;;5113378;27;20412;-71
2022/12/06 01:32:24;;;;;;;13.63;4.57;;;5.30;99.90;;;;;;5075752;28;20036;-71
2022/12/06 01:34:51;;;;;;;10.83;4.93;;;5.20;99.90;;;;;;5081196;28;20517;-72
2022/12/06 01:37:18;;;;;;;12.90;4.57;;;5.20;99.90;;;;;;5107538;27;20044;-71
2022/12/06 01:39:44;;;;;;;10.80;4.80;;;5.20;99.90;;;;;;5112767;27;20123;-71
2022/12/06 01:42:14;;;;;;;12.17;4.47;;;5.20;99.90;;;;;;5115489;27;20122;-71
2022/12/06 01:44:49;;;;;;;7.80;4.47;;;5.30;99.90;;;;;;5113142;27;20046;-71
2022/12/06 01:47:27;;;;;;;9.40;4.80;;;5.20;99.90;;;;;;5109269;28;21247;-71
2022/12/06 01:49:59;;;;;;;11.60;4.27;;;5.20;99.90;;;;;;5116724;27;20078;-71
2022/12/06 01:52:30;;;;;;;9.38;4.70;;;5.20;99.90;;;;;;5095480;28;20522;-71
2022/12/06 01:54:58;;;;;;;9.80;4.70;;;5.20;99.90;;;;;;5091217;28;20047;-71
2022/12/06 01:57:24;;;;;;;9.37;4.93;;;5.20;99.90;;;;;;5098649;27;20031;-72
2022/12/06 01:59:49;;;;;;;11.17;5.23;;;5.20;99.90;;;;;;5113382;27;20054;-71
2022/12/06 02:02:15;;;;;;;9.13;4.60;;;5.20;99.90;;;;;;5113573;27;20039;-71
2022/12/06 02:04:43;;;;;;;9.13;4.57;;;5.20;99.90;;;;;;5107788;27;20561;-71
2022/12/06 02:07:10;;;;;;;11.03;4.20;;;5.10;99.90;;;;;;5112562;27;20036;-72
2022/12/06 02:09:37;;;;;;;7.97;4.37;;;5.10;99.90;;;;;;5116818;27;20088;-71
2022/12/06 02:12:05;;;;;;;14.13;4.20;;;5.10;99.90;;;;;;5108816;27;20491;-71
2022/12/06 02:14:34;;;;;;;8.10;3.63;;;5.10;99.90;;;;;;5093716;28;20044;-71
2022/12/06 02:17:14;;;;;;;7.43;3.67;;;5.10;99.90;;;;;;5112499;27;20279;-71
2022/12/06 02:19:52;;;;;;;11.33;3.63;;;5.10;99.90;;;;;;5111062;27;20182;-71
2022/12/06 02:22:42;;;;;;;6.63;3.70;;;5.10;99.90;;;;;;5113505;27;20040;-71
2022/12/06 02:25:29;;;;;;;8.30;3.60;;;5.10;99.90;;;;;;5111134;27;20048;-71
2022/12/06 02:28:24;;;;;;;6.53;3.37;;;5.10;99.90;;;;;;5088469;28;20097;-71
2022/12/06 02:31:11;;;;;;;6.30;3.20;;;5.00;99.90;;;;;;5111517;27;20086;-71
2022/12/06 02:33:55;;;;;;;5.50;2.80;;;5.00;99.90;;;;;;5114350;27;20059;-71
2022/12/06 02:36:30;;;;;;;5.63;3.30;;;5.10;99.90;;;;;;5108904;27;20043;-71
2022/12/06 02:39:04;;;;;;;8.67;3.60;;;5.00;99.90;;;;;;5110077;27;20051;-72
2022/12/06 02:41:37;;;;;;;7.03;3.17;;;5.00;99.90;;;;;;5108363;27;20096;-71
2022/12/06 02:44:05;;;;;;;7.97;3.40;;;5.00;99.90;;;;;;5109133;27;20447;-72
2022/12/06 02:46:35;;;;;;;8.57;3.50;;;5.00;99.90;;;;;;5107198;27;20047;-71
2022/12/06 02:49:03;;;;;;;7.50;3.00;;;5.00;99.90;;;;;;5108226;27;20039;-71
2022/12/06 02:51:32;;;;;;;6.40;2.80;;;5.00;99.90;;;;;;5112301;27;20521;-71
2022/12/06 02:54:01;;;;;;;5.83;3.00;;;5.00;99.90;;;;;;5107096;27;20054;-71
2022/12/06 02:56:28;;;;;;;5.50;3.20;;;5.00;99.90;;;;;;5114610;27;20091;-71
2022/12/06 02:58:54;;;;;;;5.13;2.63;;;5.00;99.90;;;;;;5106078;27;20047;-71
2022/12/06 03:01:36;;;;;;;3.93;2.13;;;4.90;99.90;;;;;;5109742;27;20054;-71
2022/12/06 03:04:44;;;;;;;6.78;2.85;;;5.00;99.90;;;;;;5090948;28;20065;-71
2022/12/06 03:07:35;;;;;;;4.87;2.50;;;4.90;99.90;;;;;;5092937;28;20066;-71
2022/12/06 03:10:23;;;;;;;4.90;2.30;;;4.90;99.90;;;;;;5107762;27;20075;-71
2022/12/06 03:13:01;;;;;;;4.13;2.30;;;4.90;99.90;;;;;;5097876;27;20080;-71
2022/12/06 03:15:43;;;;;;;4.63;2.27;;;4.90;99.90;;;;;;5112264;27;20043;-71
2022/12/06 03:18:11;;;;;;;;;;;4.90;99.90;;;;;;5107203;28;20076;-71
2022/12/06 03:20:46;;;;;;;5.50;2.10;;;4.90;99.90;;;;;;5107185;28;19927;-72
2022/12/06 03:23:20;;;;;;;2.87;2.10;;;4.90;99.90;;;;;;5110609;27;20558;-71
2022/12/06 03:25:48;;;;;;;4.20;2.50;;;4.90;99.90;;;;;;5112482;27;20050;-71
2022/12/06 03:28:16;;;;;;;3.43;2.30;;;4.90;99.90;;;;;;5114208;27;20503;-71
2022/12/06 03:30:49;;;;;;;5.13;2.37;;;4.90;99.90;;;;;;5109304;27;20139;-71
2022/12/06 03:33:15;;;;;;;4.57;2.57;;;4.90;99.90;;;;;;5102922;28;20071;-72
2022/12/06 03:35:43;;;;;;;3.07;2.27;;;4.90;99.90;;;;;;5110215;27;20086;-71
2022/12/06 03:38:13;;;;;;;2.80;1.90;;;4.90;99.90;;;;;;5111794;27;20031;-71
2022/12/06 03:40:42;;;;;;;5.77;2.80;;;4.90;99.90;;;;;;5108905;27;20078;-71
2022/12/06 03:43:09;;;;;;;5.23;2.43;;;4.90;99.90;;;;;;5107820;27;20414;-71
2022/12/06 03:45:41;;;;;;;4.00;2.47;;;4.80;99.90;;;;;;5107036;27;20032;-71
2022/12/06 03:48:13;;;;;;;4.17;2.47;;;4.90;99.90;;;;;;5114293;27;20075;-71
2022/12/06 03:50:46;;;;;;;4.53;2.20;;;4.90;99.90;;;;;;5080014;28;20040;-71
2022/12/06 03:53:11;;;;;;;4.10;2.27;;;4.90;99.90;;;;;;5090273;28;20028;-72
2022/12/06 03:55:37;;;;;;;4.33;2.10;;;4.90;99.90;;;;;;5079248;28;20113;-71
2022/12/06 03:58:03;;;;;;;4.63;2.53;;;4.80;99.90;;;;;;5112528;27;20044;-72
2022/12/06 04:00:29;;;;;;;4.70;2.23;;;4.90;99.90;;;;;;5090005;28;20047;-78
2022/12/06 04:02:54;;;;;;;6.50;2.40;;;4.90;99.90;;;;;;5106122;28;20039;-72
2022/12/06 04:05:20;;;;;;;4.83;2.47;;;4.80;99.90;;;;;;5104793;27;20040;-72
2022/12/06 04:07:46;;;;;;;3.93;2.03;;;4.80;99.90;;;;;;5108890;27;20056;-72
2022/12/06 04:10:12;;;;;;;4.37;2.70;;;4.90;99.90;;;;;;5108007;28;20568;-71
2022/12/06 04:15:22;;;;;;;4.83;2.70;;;4.80;99.90;;;;;;5102205;28;20052;-72
2022/12/06 04:23:17;;;;;;;3.47;2.37;;;4.80;99.90;;;;;;5113399;28;20138;-72
2022/12/06 04:25:43;;;;;;;5.13;2.60;;;4.80;99.90;;;;;;5107948;28;20052;-72
2022/12/06 04:39:06;;;;;;;5.33;2.77;;;4.70;99.90;;;;;;5108341;28;20067;-71
2022/12/06 04:44:27;;;;;;;3.73;2.33;;;4.80;99.90;;;;;;5033414;28;20044;-72
2022/12/06 04:46:52;;;;;;;5.33;2.33;;;4.80;99.90;;;;;;5105055;28;20204;-72
2022/12/06 04:49:18;;;;;;;3.67;2.50;;;4.70;99.90;;;;;;5091530;28;20035;-71
2022/12/06 04:51:44;;;;;;;5.13;2.43;;;4.70;99.90;;;;;;5107120;28;20043;-72
2022/12/06 04:54:10;;;;;;;7.40;2.50;;;4.60;99.90;;;;;;5091087;28;20104;-72
2022/12/06 04:56:35;;;;;;;4.10;2.50;;;4.60;99.90;;;;;;5080857;28;20050;-71
2022/12/06 04:59:01;;;;;;;6.40;2.40;;;4.60;99.90;;;;;;5110754;28;20057;-72
2022/12/06 05:01:27;;;;;;;2.73;2.13;;;4.50;99.90;;;;;;5108664;28;20268;-72
2022/12/06 05:03:52;;;;;;;6.03;2.63;;;4.50;99.90;;;;;;5106143;28;20111;-72
2022/12/06 05:06:18;;;;;;;4.23;2.50;;;4.50;99.90;;;;;;5110104;28;20044;-71
2022/12/06 05:08:44;;;;;;;6.97;2.17;;;4.50;99.90;;;;;;5090667;28;20051;-71
2022/12/06 05:11:09;;;;;;;6.27;2.70;;;4.40;99.90;;;;;;5106366;28;20686;-71
2022/12/06 05:13:35;;;;;;;5.67;2.37;;;4.40;99.90;;;;;;5111547;28;20047;-71
2022/12/06 05:16:04;;;;;;;5.03;2.30;;;4.40;99.90;;;;;;5106631;27;20033;-71
2022/12/06 05:18:30;;;;;;;4.47;2.23;;;4.50;99.90;;;;;;5089111;28;20042;-71
2022/12/06 05:21:14;;;;;;;3.83;2.50;;;4.50;99.90;;;;;;5109470;28;20110;-71
2022/12/06 05:23:39;;;;;;;6.73;2.50;;;4.50;99.90;;;;;;5106337;28;20062;-72
2022/12/06 05:26:17;;;;;;;8.10;2.60;;;4.40;99.90;;;;;;5094514;28;20051;-72
2022/12/06 05:28:44;;;;;;;4.87;2.43;;;4.50;99.90;;;;;;5106319;27;20048;-72
2022/12/06 05:31:11;;;;;;;5.70;2.73;;;4.50;99.90;;;;;;5092116;28;20049;-71
2022/12/06 05:33:37;;;;;;;6.40;2.60;;;4.50;99.90;;;;;;5110007;27;20043;-71
2022/12/06 05:36:12;;;;;;;4.83;2.67;;;4.50;99.90;;;;;;5109001;27;20040;-72
2022/12/06 05:38:38;;;;;;;5.53;2.53;;;4.50;99.90;;;;;;5114226;27;20050;-71
2022/12/06 05:41:04;;;;;;;4.53;2.70;;;4.50;99.90;;;;;;5110935;27;20047;-72
2022/12/06 05:43:31;;;;;;;4.83;2.87;;;4.50;99.90;;;;;;5082225;27;20042;-71
2022/12/06 05:45:57;;;;;;;5.77;2.63;;;4.40;99.90;;;;;;5113847;27;20047;-71
2022/12/06 05:48:23;;;;;;;8.93;3.43;;;4.50;99.90;;;;;;5110538;27;20086;-71
2022/12/06 05:50:49;;;;;;;5.20;3.20;;;4.50;99.90;;;;;;5099288;28;20165;-71
2022/12/06 05:53:16;;;;;;;6.43;3.13;;;4.50;99.90;;;;;;5113586;27;20168;-71
2022/12/06 05:55:42;;;;;;;7.20;3.20;;;4.50;99.90;;;;;;5108832;27;20140;-71
2022/12/06 05:58:08;;;;;;;4.33;2.50;;;4.50;99.90;;;;;;5115912;27;20051;-71
2022/12/06 06:00:34;;;;;;;9.97;3.50;;;4.50;99.90;;;;;;5111336;27;20127;-75
2022/12/06 06:03:00;;;;;;;6.53;3.10;;;4.50;99.90;;;;;;5110405;27;20066;-71
2022/12/06 06:05:26;;;;;;;4.13;3.10;;;4.50;99.90;;;;;;5110211;27;20035;-71
2022/12/06 06:07:51;;;;;;;5.77;3.20;;;4.50;99.90;;;;;;5127220;27;20051;-72
2022/12/06 06:10:17;;;;;;;8.13;3.37;;;4.50;99.90;;;;;;5118684;27;20047;-72
2022/12/06 06:12:43;;;;;;;6.57;3.00;;;4.40;99.90;;;;;;5113903;27;20259;-71
2022/12/06 06:15:11;;;;;;;6.47;3.43;;;4.40;99.90;;;;;;5109360;27;20043;-71
2022/12/06 06:17:37;;;;;;;6.17;3.10;;;4.40;99.90;;;;;;5112443;27;20043;-71
2022/12/06 06:20:04;;;;;;;5.87;3.03;;;4.40;99.90;;;;;;5111397;27;20073;-71
2022/12/06 06:22:34;;;;;;;5.67;3.23;;;4.50;99.90;;;;;;5110681;28;20335;-71
2022/12/06 06:25:01;;;;;;;5.37;3.40;;;4.40;99.90;;;;;;5121403;27;20051;-71
2022/12/06 06:27:27;;;;;;;5.67;2.87;;;4.40;99.90;;;;;;5120402;27;20040;-71
2022/12/06 06:29:53;;;;;;;6.87;2.93;;;4.40;99.90;;;;;;5128744;27;20078;-71
2022/12/06 06:32:19;;;;;;;4.47;3.30;;;4.40;99.90;;;;;;5118341;27;20073;-71
2022/12/06 06:34:45;;;;;;;4.97;3.20;;;4.40;99.90;;;;;;5124750;27;20391;-71
2022/12/06 06:37:11;;;;;;;5.47;3.10;;;4.40;99.90;;;;;;5106610;27;20032;-71
2022/12/06 06:39:36;;;;;;;5.80;3.00;;;4.30;99.90;;;;;;5108893;27;20060;-71
2022/12/06 06:42:02;;;;;;;6.73;3.57;;;4.30;99.90;;;;;;5090701;28;20040;-71
2022/12/06 06:44:28;;;;;;;6.47;3.10;;;4.30;99.90;;;;;;5093814;28;20044;-71
2022/12/06 06:46:53;;;;;;;9.27;3.30;;;4.30;99.90;;;;;;5112366;27;20053;-71
2022/12/06 06:49:19;;;;;;;5.43;2.97;;;4.30;99.90;;;;;;5093597;27;20103;-71
2022/12/06 06:51:45;;;;;;;6.67;3.27;;;4.30;99.90;;;;;;5120025;27;20520;-71
2022/12/06 06:54:11;;;;;;;5.87;3.17;;;4.30;99.90;;;;;;5129847;27;20038;-71
2022/12/06 06:56:38;;;;;;;6.30;3.50;;;4.30;99.90;;;;;;5132536;27;20049;-71
2022/12/06 06:59:03;;;;;;;5.90;3.40;;;4.20;99.90;;;;;;5118094;27;20046;-69
2022/12/06 07:01:29;;;;;;;8.47;3.40;;;4.20;99.90;;;;;;5119624;27;20043;-70
2022/12/06 07:03:55;;;;;;;4.33;3.23;;;4.20;99.90;;;;;;5127856;27;20050;-69
2022/12/06 07:06:20;;;;;;;6.47;3.00;;;4.20;99.90;;;;;;5117671;27;20118;-69
2022/12/06 07:08:46;;;;;;;6.90;3.37;;;4.20;99.90;;;;;;5132282;27;20051;-69
2022/12/06 07:11:13;;;;;;;6.40;3.00;;;4.10;99.90;;;;;;5135237;27;20047;-69
2022/12/06 07:13:40;;;;;;;5.47;3.43;;;4.10;99.90;;;;;;5105576;28;20036;-69
2022/12/06 07:16:11;;;;;;;6.13;3.20;;;4.10;99.90;;;;;;5123015;27;20083;-70
2022/12/06 07:18:36;;;;;;;6.07;2.87;;;4.10;99.90;;;;;;5119403;27;20047;-69
2022/12/06 07:21:07;;;;;;;5.43;3.07;;;4.10;99.90;;;;;;5135542;27;20168;-69
2022/12/06 07:23:34;;;;;;;4.97;2.90;;;4.10;99.90;;;;;;5135353;27;20043;-70
2022/12/06 07:26:01;;;;;;;6.47;3.30;;;4.00;99.90;;;;;;5112502;27;20043;-69
2022/12/06 07:28:27;;;;;;;5.13;2.90;;;3.90;99.90;;;;;;5097134;28;20035;-69
2022/12/06 07:30:53;;;;;;;7.33;3.10;;;3.90;99.90;;;;;;5134030;27;20055;-70
2022/12/06 07:33:19;;;;;;;5.13;2.90;;;3.90;99.90;;;;;;5134917;27;20035;-69
2022/12/06 07:35:51;;;;;;;6.80;3.20;;;3.80;99.90;;;;;;5137624;27;20107;-69
2022/12/06 07:38:16;;;;;;;5.47;3.17;;;3.80;99.90;;;;;;5135315;27;20074;-69
2022/12/06 07:40:42;;;;;;;7.07;3.33;;;3.70;99.90;;;;;;5117472;27;20039;-70
2022/12/06 07:45:53;;;;;;;6.17;3.43;;;3.70;99.90;;;;;;5135953;27;20059;-69
2022/12/06 07:48:19;;;;;;;6.03;3.17;;;3.60;99.90;;;;;;5136871;27;20068;-69
2022/12/06 07:50:46;;;;;;;5.77;3.50;;;3.60;99.90;;;;;;5117932;27;20047;-69
2022/12/06 07:53:12;;;;;;;6.30;3.27;;;3.60;99.90;;;;;;5133966;27;20566;-70
2022/12/06 07:55:38;;;;;;;7.20;3.50;;;3.50;99.90;;;;;;5118475;27;20117;-69
2022/12/06 07:58:03;;;;;;;7.67;3.70;;;3.50;99.90;;;;;;5136269;27;20051;-70
2022/12/06 08:00:29;;;;;;;5.00;3.27;;;3.50;99.90;;;;;;5136411;27;20088;-70
2022/12/06 08:02:55;;;;;;;9.53;3.43;;;3.50;99.90;;;;;;5115387;27;20054;-70
2022/12/06 08:05:21;;;;;;;4.80;3.17;;;3.40;99.90;;;;;;5137251;27;20066;-70
2022/12/06 08:07:46;;;;;;;6.47;3.27;;;3.40;99.90;;;;;;5136186;27;20092;-70
2022/12/06 08:10:12;;;;;;;8.73;3.67;;;3.30;99.90;;;;;;5118462;28;20075;-69
2022/12/06 08:12:38;;;;;;;5.70;3.20;;;3.30;99.90;;;;;;5113925;28;20082;-69
2022/12/06 08:15:05;;;;;;;6.67;3.40;;;3.30;99.90;;;;;;5132496;28;20054;-70
2022/12/06 08:17:30;;;;;;;5.57;3.70;;;3.30;99.90;;;;;;5135920;28;20216;-69
2022/12/06 08:19:56;;;;;;;6.43;3.63;;;3.30;99.90;;;;;;5134766;28;20066;-69
2022/12/06 08:22:22;;;;;;;10.20;4.83;;;3.30;99.90;;;;;;5130335;28;20065;-69
2022/12/06 08:24:47;;;;;;;7.47;4.20;;;3.30;99.90;;;;;;5134839;28;20039;-69
2022/12/06 08:27:13;;;;;;;6.10;3.57;;;3.40;99.90;;;;;;5136744;28;20038;-69
2022/12/06 08:29:39;;;;;;;8.27;3.60;;;3.50;99.90;;;;;;5134943;28;20035;-69
2022/12/06 08:32:04;;;;;;;6.17;3.93;;;3.50;99.90;;;;;;5136266;28;20054;-69
2022/12/06 08:34:30;;;;;;;4.97;3.50;;;3.50;99.90;;;;;;5101737;28;20141;-69
2022/12/06 08:36:56;;;;;;;6.57;3.80;;;3.60;99.90;;;;;;5108962;28;20398;-70
2022/12/06 08:39:24;;;;;;;8.97;4.60;;;3.60;99.90;;;;;;5137601;28;20035;-70
2022/12/06 08:42:01;;;;;;;6.97;4.20;;;3.70;99.90;;;;;;5135674;28;20043;-69
2022/12/06 08:44:29;;;;;;;8.47;4.50;;;3.70;99.90;;;;;;5138011;28;20173;-69
2022/12/06 08:46:55;;;;;;;7.67;4.30;;;3.70;99.90;;;;;;5112592;28;20043;-70
2022/12/06 08:49:22;;;;;;;7.10;4.40;;;3.80;99.90;;;;;;5124440;28;20078;-70
2022/12/06 08:51:48;;;;;;;7.27;4.33;;;3.90;99.90;;;;;;5136578;28;20043;-70
2022/12/06 08:54:17;;;;;;;7.80;4.73;;;3.90;99.90;;;;;;5133888;28;20055;-70
2022/12/06 08:56:43;;;;;;;4.93;3.70;;;3.90;99.90;;;;;;5135572;27;20074;-70
2022/12/06 08:59:09;;;;;;;5.27;3.73;;;4.00;99.90;;;;;;5132572;27;20099;-70
2022/12/06 09:01:35;;;;;;;7.57;4.03;;;4.00;99.90;;;;;;5138887;27;20059;-69
2022/12/06 09:04:01;;;;;;;8.30;4.30;;;4.10;99.90;;;;;;5139967;27;20136;-70
2022/12/06 09:06:28;;;;;;;6.73;3.80;;;4.10;99.90;;;;;;5140154;27;20043;-70
2022/12/06 09:08:55;;;;;;;7.23;3.83;;;4.20;99.90;;;;;;5137328;27;20063;-69
2022/12/06 09:11:21;;;;;;;7.43;4.77;;;4.20;99.90;;;;;;5137783;27;20079;-70
2022/12/06 09:13:46;;;;;;;6.33;4.07;;;4.30;99.90;;;;;;5139288;27;20035;-70
2022/12/06 09:16:15;;;;;;;6.80;3.97;;;4.30;99.90;;;;;;5139255;27;20065;-70
2022/12/06 09:18:42;;;;;;;5.90;3.93;;;4.40;99.90;;;;;;5124055;27;20044;-69
2022/12/06 09:21:11;;;;;;;5.93;3.50;;;4.50;99.90;;;;;;5114112;27;20045;-70
2022/12/06 09:23:37;;;;;;;5.33;3.80;;;4.60;99.90;;;;;;5139883;27;20051;-70
2022/12/06 09:26:04;;;;;;;6.43;3.83;;;4.60;99.90;;;;;;5140092;27;20055;-70
2022/12/06 09:28:32;;;;;;;5.63;3.67;;;4.60;99.90;;;;;;5116675;27;20164;-70
2022/12/06 09:30:58;;;;;;;6.47;3.67;;;4.60;99.90;;;;;;5140266;27;20047;-70
2022/12/06 09:33:24;;;;;;;7.77;4.13;;;4.60;99.90;;;;;;5129508;27;20035;-70
2022/12/06 09:35:50;;;;;;;7.13;4.20;;;4.70;99.90;;;;;;5138436;27;20115;-70
2022/12/06 09:38:17;;;;;;;7.17;3.90;;;4.80;99.90;;;;;;5135472;27;20126;-70
2022/12/06 09:41:02;;;;;;;6.47;3.93;;;4.80;99.90;;;;;;5120756;27;20055;-70
2022/12/06 09:44:06;;;;;;;6.10;3.77;;;4.90;99.90;;;;;;5121786;27;20043;-69
2022/12/06 09:46:58;;;;;;;7.20;4.17;;;4.90;99.90;;;;;;5108835;27;20040;-69
2022/12/06 09:49:46;;;;;;;5.37;3.73;;;4.80;99.90;;;;;;5134813;27;20066;-70
2022/12/06 09:52:28;;;;;;;6.90;3.60;;;4.90;99.90;;;;;;5140066;27;20047;-70
2022/12/06 09:55:22;;;;;;;5.78;3.70;;;4.90;99.90;;;;;;5120189;27;20051;-70
2022/12/06 09:58:20;;;;;;;8.03;4.27;;;5.00;99.90;;;;;;5118320;27;20047;-70
2022/12/06 10:01:20;;;;;;;7.97;3.70;;;4.90;99.90;;;;;;5114052;27;20081;-70
2022/12/06 10:04:17;;;;;;;8.67;4.00;;;4.90;99.90;;;;;;5138041;27;20528;-70
2022/12/06 10:06:52;;;;;;;7.60;4.10;;;4.90;99.90;;;;;;5133727;27;20098;-70
2022/12/06 10:09:36;;;;;;;6.27;4.30;;;4.90;99.90;;;;;;5137690;27;20066;-70
2022/12/06 10:12:23;;;;;;;5.33;3.70;;;5.00;99.90;;;;;;5136860;27;20043;-70
2022/12/06 10:15:21;;;;;;;5.67;3.80;;;5.10;99.90;;;;;;5138696;27;20141;-70
2022/12/06 10:17:55;;;;;;;7.40;4.00;;;5.10;99.90;;;;;;5095725;27;20046;-70
2022/12/06 10:20:52;;;;;;;8.13;4.10;;;5.10;99.90;;;;;;5136253;27;20057;-70
2022/12/06 10:23:45;;;;;;;7.97;3.33;;;5.10;99.90;;;;;;5085191;27;20051;-70
2022/12/06 10:26:22;;;;;;;6.90;3.73;;;5.10;99.90;;;;;;5139178;27;20047;-70
2022/12/06 10:29:17;;;;;;;5.27;3.90;;;5.20;99.90;;;;;;5128534;27;20051;-70
2022/12/06 10:31:49;;;;;;;7.20;3.93;;;5.20;99.90;;;;;;5110981;27;20050;-70
2022/12/06 10:34:40;;;;;;;6.00;3.53;;;5.30;99.90;;;;;;5137198;27;20051;-70
2022/12/06 10:37:17;;;;;;;5.25;3.22;;;5.40;99.90;;;;;;5112369;27;20047;-69
2022/12/06 10:39:54;;;;;;;4.77;3.40;;;5.40;99.90;;;;;;5137458;27;20039;-70
2022/12/06 10:42:25;;;;;;;4.07;2.77;;;5.50;99.90;;;;;;5131255;27;20043;-70
2022/12/06 10:44:59;;;;;;;8.90;3.40;;;5.50;99.90;;;;;;5136535;27;20676;-70
2022/12/06 10:47:40;;;;;;;4.60;2.90;;;5.50;99.90;;;;;;5136943;27;20047;-70
2022/12/06 10:50:17;;;;;;;7.23;3.23;;;5.50;99.90;;;;;;5064585;27;20093;-70
2022/12/06 10:52:56;;;;;;;3.83;2.73;;;5.50;99.90;;;;;;5130209;27;20055;-70
2022/12/06 10:55:35;;;;;;;3.97;2.53;;;5.50;99.90;;;;;;5136421;27;20053;-70
2022/12/06 10:58:06;;;;;;;6.77;3.27;;;5.60;99.90;;;;;;5130067;27;20077;-70
2022/12/06 11:00:38;;;;;;;6.10;3.00;;;5.70;99.90;;;;;;5129934;27;20066;-70
2022/12/06 11:03:07;;;;;;;;;;;5.70;99.90;;;;;;5135585;27;20051;-70
2022/12/06 11:05:39;;;;;;;6.27;2.60;;;5.80;99.90;;;;;;5114045;27;19923;-70
2022/12/06 11:08:43;;;;;;;5.33;2.63;;;5.90;99.90;;;;;;5114415;27;20048;-69
2022/12/06 11:11:18;;;;;;;5.30;2.77;;;6.00;99.90;;;;;;5067885;28;20459;-70
2022/12/06 11:13:48;;;;;;;6.50;2.43;;;6.10;99.90;;;;;;5110873;27;20039;-70
2022/12/06 11:16:29;;;;;;;3.23;2.33;;;6.20;99.90;;;;;;5135541;27;20043;-70
2022/12/06 11:18:59;;;;;;;5.93;2.67;;;6.20;99.90;;;;;;5128743;27;20054;-70
2022/12/06 11:21:45;;;;;;;5.03;2.70;;;6.20;99.90;;;;;;5124637;27;20050;-70
2022/12/06 11:24:41;;;;;;;6.00;2.60;;;6.30;99.90;;;;;;5135219;27;20150;-70
2022/12/06 11:27:21;;;;;;;3.43;2.20;;;6.30;99.90;;;;;;5113448;27;20046;-70
2022/12/06 11:29:48;;;;;;;3.77;2.23;;;6.40;99.90;;;;;;5134713;27;20047;-70
2022/12/06 11:32:16;;;;;;;3.90;2.07;;;6.50;99.90;;;;;;5134940;27;20046;-70
2022/12/06 11:34:52;;;;;;;3.80;2.47;;;6.60;99.90;;;;;;5135204;27;20047;-70
2022/12/06 11:37:21;;;;;;;3.57;2.50;;;6.70;99.90;;;;;;5089371;27;20152;-70
2022/12/06 11:39:51;;;;;;;4.77;2.27;;;6.70;99.90;;;;;;5124504;27;20047;-70
2022/12/06 11:42:24;;;;;;;4.60;2.47;;;6.70;99.90;;;;;;5135075;27;20055;-70
2022/12/06 11:44:59;;;;;;;4.43;2.53;;;6.70;99.90;;;;;;5136879;27;20595;-70
2022/12/06 11:47:25;;;;;;;7.00;2.73;;;6.70;99.90;;;;;;5110126;27;20532;-69
2022/12/06 11:49:54;;;;;;;5.13;2.57;;;6.70;99.90;;;;;;5113683;27;20045;-70
2022/12/06 11:52:29;;;;;;;7.10;2.50;;;6.60;99.90;;;;;;5133478;27;20031;-70
2022/12/06 11:55:06;;;;;;;5.97;3.00;;;6.60;99.90;;;;;;5135591;27;20038;-70
2022/12/06 11:57:42;;;;;;;5.70;2.80;;;6.50;99.90;;;;;;5136215;27;20042;-69
2022/12/06 12:00:19;;;;;;;3.57;2.73;;;6.40;99.90;;;;;;5135916;27;20092;-70
2022/12/06 12:02:48;;;;;;;6.70;2.53;;;6.40;99.90;;;;;;5121858;27;20057;-70
2022/12/06 12:05:30;;;;;;;5.33;2.67;;;6.40;99.90;;;;;;5136634;27;20042;-70
2022/12/06 12:08:18;;;;;;;4.30;2.75;;;6.40;99.90;;;;;;5134547;27;20062;-69
2022/12/06 12:10:55;;;;;;;3.10;2.20;;;6.50;99.90;;;;;;5134781;27;20066;-70
2022/12/06 12:16:20;;;;;;;5.30;2.63;;;6.50;99.90;;;;;;5135679;28;20066;-70
2022/12/06 12:19:02;;;;;;;3.70;2.80;;;6.50;99.90;;;;;;5135455;28;20043;-70
2022/12/06 12:21:41;;;;;;;3.88;2.42;;;6.60;99.90;;;;;;5118061;28;20543;-69
2022/12/06 12:24:45;;;;;;;6.17;2.70;;;6.70;99.90;;;;;;5135551;27;20047;-69
2022/12/06 12:27:40;;;;;;;4.97;2.57;;;6.70;99.90;;;;;;5124511;28;20111;-70
2022/12/06 12:30:35;;;;;;;5.50;2.63;;;6.70;99.90;;;;;;5136771;27;20061;-70
2022/12/06 12:33:04;;;;;;;3.40;2.60;;;6.70;99.90;;;;;;5136611;27;20073;-70
2022/12/06 12:35:30;;;;;;;3.03;2.20;;;6.70;99.90;;;;;;5139793;27;20078;-70
2022/12/06 12:38:03;;;;;;;5.30;2.50;;;6.70;99.90;;;;;;5136982;27;20050;-70
2022/12/06 12:40:36;;;;;;;5.17;2.53;;;6.70;99.90;;;;;;5125387;27;20336;-70
2022/12/06 12:43:10;;;;;;;5.70;2.30;;;6.60;99.90;;;;;;5139794;27;20047;-70
2022/12/06 12:45:59;;;;;;;4.73;2.00;;;6.60;99.90;;;;;;5135463;27;20092;-70
2022/12/06 12:48:27;;;;;;;3.90;2.30;;;6.60;99.90;;;;;;5110212;27;20084;-69
2022/12/06 12:50:54;;;;;;;4.40;2.10;;;6.60;99.90;;;;;;5121571;27;20047;-70
2022/12/06 12:53:41;;;;;;;2.67;2.10;;;6.60;99.90;;;;;;5140487;27;20039;-70
2022/12/06 12:56:18;;;;;;;3.47;2.00;;;6.70;99.90;;;;;;5136211;27;20077;-70
2022/12/06 12:58:48;;;;;;;4.73;2.23;;;6.80;99.90;;;;;;5137089;27;20051;-70
2022/12/06 13:01:22;;;;;;;4.73;2.50;;;6.80;99.90;;;;;;5140825;27;20073;-69
2022/12/06 13:03:53;;;;;;;4.43;2.00;;;6.90;99.90;;;;;;5140397;27;20047;-70
2022/12/06 13:06:53;;;;;;;5.10;2.23;;;6.90;99.90;;;;;;5118328;27;20047;-70
2022/12/06 13:09:30;;;;;;;2.00;1.70;;;6.90;99.90;;;;;;5118934;27;20047;-70
2022/12/06 13:12:02;;;;;;;4.30;2.30;;;7.00;99.90;;;;;;5129237;27;20435;-70
2022/12/06 13:14:29;;;;;;;3.55;2.13;;;7.10;99.90;;;;;;5131431;27;20058;-70
2022/12/06 13:16:58;;;;;;;3.20;1.70;;;7.10;99.90;;;;;;5138069;27;20054;-69
2022/12/06 13:19:32;;;;;;;3.17;2.03;;;7.10;99.90;;;;;;5139749;27;20027;-69
2022/12/06 13:22:01;;;;;;;3.80;1.83;;;7.10;99.90;;;;;;5134368;27;20047;-70
2022/12/06 13:24:29;;;;;;;4.00;1.83;;;7.00;99.90;;;;;;5109157;27;20044;-69
2022/12/06 13:26:59;;;;;;;2.30;1.70;;;7.00;99.90;;;;;;5098090;27;20043;-69
2022/12/06 13:29:49;;;;;;;3.30;1.73;;;6.90;99.90;;;;;;5139341;27;20073;-70
2022/12/06 13:32:22;;;;;;;3.43;1.63;;;6.90;99.90;;;;;;5137748;27;20080;-69
2022/12/06 13:34:53;;;;;;;2.83;1.53;;;6.90;99.90;;;;;;5139176;27;20047;-69
2022/12/06 13:37:27;;;;;;;3.37;2.00;;;6.90;99.90;;;;;;5124289;27;20067;-70
2022/12/06 13:39:52;;;;;;;2.80;1.60;;;6.90;99.90;;;;;;5121761;27;20042;-70
2022/12/06 13:42:36;;;;;;;4.20;1.80;;;6.80;99.90;;;;;;5103496;27;20612;-70
2022/12/06 13:45:04;;;;;;;3.33;1.50;;;6.70;99.90;;;;;;5138415;27;20058;-69